Time;durP1;ratioP1;P1;durP2;ratioP2;P2;SDS_P1;SDS_P2;PMS_P1;PMS_P2;Temp;Humidity;BMP_temperature;BMP_pressure;BME280_temperature;BME280_humidity;BME280_pressure;Samples;Min_cycle;Max_cycle;Signal;HPM_P1;HPM_P2
2022/10/25 00:00:43;;;;;;;28.30;10.85;;;;;;;15.60;69.33;101112.66;5110325;28;20023;-75
2022/10/25 00:03:10;;;;;;;27.17;10.20;;;;;;;15.62;69.46;101102.53;5111244;28;20067;-76
2022/10/25 00:05:37;;;;;;;22.58;9.75;;;;;;;15.51;69.55;101099.97;5110765;28;20032;-76
2022/10/25 00:08:03;;;;;;;37.53;9.32;;;;;;;15.46;69.79;101104.94;5110898;28;20019;-76
2022/10/25 00:10:29;;;;;;;24.10;9.32;;;;;;;15.49;70.04;101088.44;5110204;28;20035;-75
2022/10/25 00:12:55;;;;;;;16.58;8.95;;;;;;;15.47;70.00;101093.13;5110418;28;20398;-76
2022/10/25 00:15:20;;;;;;;32.03;9.20;;;;;;;15.46;70.01;101091.38;5111135;28;20063;-76
2022/10/25 00:17:46;;;;;;;20.77;9.98;;;;;;;15.40;70.47;101097.41;5110561;28;20519;-76
2022/10/25 00:20:12;;;;;;;24.15;9.57;;;;;;;15.41;70.52;101096.41;5110726;28;20106;-76
2022/10/25 00:22:38;;;;;;;135.45;16.45;;;;;;;15.38;70.24;101089.38;5110514;28;20031;-77
2022/10/25 00:25:05;;;;;;;62.13;11.13;;;;;;;15.40;70.15;101081.13;5110367;28;20110;-78
2022/10/25 00:27:31;;;;;;;18.88;9.82;;;;;;;15.23;70.32;101040.19;5110547;28;20027;-76
2022/10/25 00:29:56;;;;;;;17.55;8.95;;;;;;;15.41;69.92;101072.00;5110534;28;20031;-76
2022/10/25 00:32:22;;;;;;;31.70;9.73;;;;;;;15.44;70.31;101077.13;5108946;28;20058;-76
2022/10/25 00:34:47;;;;;;;38.35;11.07;;;;;;;15.42;70.35;101070.97;5110559;28;20168;-76
2022/10/25 00:37:13;;;;;;;20.02;9.88;;;;;;;15.39;70.54;101065.84;5110310;28;20032;-77
2022/10/25 00:39:38;;;;;;;23.73;10.38;;;;;;;15.36;70.84;101071.56;5110446;28;20027;-77
2022/10/25 00:42:04;;;;;;;23.30;9.70;;;;;;;15.35;70.97;101068.00;5110316;28;20024;-78
2022/10/25 00:44:39;;;;;;;25.10;11.00;;;;;;;15.36;71.24;101074.28;5110529;28;20035;-76
2022/10/25 00:47:19;;;;;;;90.10;12.23;;;;;;;15.33;70.86;101063.72;5110484;28;20039;-75
2022/10/25 00:50:23;;;;;;;36.05;10.50;;;;;;;15.32;71.01;101067.47;5123868;28;20020;-77
2022/10/25 00:52:52;;;;;;;37.28;9.95;;;;;;;15.16;71.35;101041.81;5040404;28;20034;-75
2022/10/25 00:55:20;;;;;;;21.73;11.23;;;;;;;15.25;71.31;101046.34;5031382;28;20041;-77
2022/10/25 00:57:58;;;;;;;75.95;12.85;;;;;;;15.35;71.02;101062.56;5026981;28;20096;-75
2022/10/25 01:00:24;;;;;;;102.13;15.57;;;;;;;15.13;71.21;101030.38;5027178;28;20037;-77
2022/10/25 01:02:50;;;;;;;80.88;13.25;;;;;;;15.33;71.29;101061.88;5026795;28;20025;-77
2022/10/25 01:05:16;;;;;;;55.85;12.68;;;;;;;15.29;71.38;101059.63;5026992;28;20128;-77
2022/10/25 01:07:42;;;;;;;48.08;12.80;;;;;;;15.32;71.40;101062.03;5026816;28;20034;-77
2022/10/25 01:10:07;;;;;;;25.65;11.98;;;;;;;15.38;71.49;101056.03;5026670;28;20038;-77
2022/10/25 01:12:33;;;;;;;318.23;29.55;;;;;;;15.35;71.45;101050.91;5026516;28;20067;-77
2022/10/25 01:14:59;;;;;;;77.68;14.43;;;;;;;15.24;71.22;101044.63;5026771;28;20033;-77
2022/10/25 01:17:31;;;;;;;31.73;10.85;;;;;;;15.24;71.79;101057.31;5026549;28;20504;-77
2022/10/25 01:20:18;;;;;;;18.80;9.65;;;;;;;15.22;71.72;101054.78;5026551;28;20033;-77
2022/10/25 01:22:58;;;;;;;26.60;9.43;;;;;;;15.23;71.90;101042.06;5026084;28;20041;-76
2022/10/25 01:25:39;;;;;;;15.52;10.52;;;;;;;15.21;71.94;101039.50;5026530;28;20703;-76
2022/10/25 01:28:13;;;;;;;22.85;9.82;;;;;;;15.20;71.92;101048.63;5026621;28;20040;-76
2022/10/25 01:30:57;;;;;;;20.00;10.43;;;;;;;15.23;71.78;101042.91;5102637;28;20051;-76
2022/10/25 01:33:46;;;;;;;19.65;8.65;;;;;;;15.17;71.91;101040.78;5088698;28;20063;-77
2022/10/25 01:36:30;;;;;;;27.63;11.65;;;;;;;15.19;72.05;101036.09;5087656;28;20434;-77
2022/10/25 01:38:58;;;;;;;44.72;11.50;;;;;;;15.16;72.11;101041.81;5088794;28;20066;-77
2022/10/25 01:41:31;;;;;;;50.58;12.15;;;;;;;15.11;72.01;101046.78;5088691;28;20028;-76
2022/10/25 01:44:04;;;;;;;68.43;12.88;;;;;;;15.09;72.50;101035.25;5088950;28;20052;-77
2022/10/25 01:46:30;;;;;;;30.23;12.20;;;;;;;15.11;72.60;101044.06;5088977;28;20031;-77
2022/10/25 01:49:03;;;;;;;22.98;10.40;;;;;;;15.10;72.78;101039.66;5089484;28;20111;-77
2022/10/25 01:51:29;;;;;;;26.88;10.40;;;;;;;14.87;72.96;101013.84;5088854;28;20465;-76
2022/10/25 01:53:55;;;;;;;46.33;12.27;;;;;;;15.03;72.64;101035.81;5089168;28;20024;-77
2022/10/25 01:56:39;;;;;;;75.43;12.32;;;;;;;15.14;72.96;101045.63;5089107;28;20135;-76
2022/10/25 01:59:07;;;;;;;31.42;10.88;;;;;;;15.14;72.98;101038.34;5089237;28;20445;-77
2022/10/25 02:02:05;;;;;;;17.98;9.93;;;;;;;15.14;73.09;101038.34;5096919;28;20020;-75
2022/10/25 02:04:52;;;;;;;30.70;10.98;;;;;;;15.18;72.89;101039.78;5105550;28;20031;-75
2022/10/25 02:07:32;;;;;;;16.77;10.27;;;;;;;15.18;73.16;101033.50;5101082;28;20108;-77
2022/10/25 02:10:08;;;;;;;38.50;11.32;;;;;;;15.04;72.98;101015.00;5088587;28;20055;-77
2022/10/25 02:13:08;;;;;;;108.03;17.05;;;;;;;15.20;73.16;101032.38;5088555;28;20028;-77
2022/10/25 02:16:02;;;;;;;38.72;11.38;;;;;;;15.18;73.42;101034.38;5088282;28;20032;-76
2022/10/25 02:18:32;;;;;;;33.10;11.98;;;;;;;15.15;72.95;101029.25;5025655;28;20033;-76
2022/10/25 02:21:00;;;;;;;30.92;11.75;;;;;;;15.17;72.93;101032.66;5025688;28;20560;-76
2022/10/25 02:23:26;;;;;;;58.17;14.75;;;;;;;15.16;73.22;101025.53;5025312;28;20041;-75
2022/10/25 02:25:53;;;;;;;75.25;14.85;;;;;;;15.07;73.10;101023.69;5025972;28;20368;-77
2022/10/25 02:28:23;;;;;;;62.90;15.35;;;;;;;15.10;73.80;101031.53;5025658;28;20063;-77
2022/10/25 02:30:50;;;;;;;44.63;12.85;;;;;;;14.95;73.65;101000.44;5025844;28;20043;-79
2022/10/25 02:33:15;;;;;;;36.28;13.90;;;;;;;15.16;73.77;101027.38;5025700;28;20049;-77
2022/10/25 02:35:41;;;;;;;55.30;13.65;;;;;;;15.15;73.79;101026.53;5027922;28;20049;-77
2022/10/25 02:38:07;;;;;;;67.47;13.95;;;;;;;15.12;73.68;101013.28;5029605;28;20061;-76
2022/10/25 02:40:32;;;;;;;38.17;14.73;;;;;;;15.10;74.07;101014.41;5028939;28;20029;-76
2022/10/25 02:42:58;;;;;;;222.13;21.88;;;;;;;15.12;74.15;101024.09;5029285;28;20476;-77
2022/10/25 02:45:23;;;;;;;59.78;14.40;;;;;;;14.95;74.01;100988.78;5029412;28;20033;-76
2022/10/25 02:47:49;;;;;;;89.80;16.15;;;;;;;15.14;74.35;101015.81;5029498;28;20119;-76
2022/10/25 02:50:14;;;;;;;29.20;13.15;;;;;;;15.17;74.30;101016.41;5029127;28;20416;-77
2022/10/25 02:52:40;;;;;;;25.95;12.68;;;;;;;15.18;74.55;101022.66;5028984;28;20033;-77
2022/10/25 02:55:05;;;;;;;44.33;12.73;;;;;;;15.20;74.56;101024.22;5034110;28;20113;-76
2022/10/25 02:57:35;;;;;;;30.83;13.65;;;;;;;15.21;74.53;101023.25;5091819;28;20103;-77
2022/10/25 03:00:05;;;;;;;96.22;19.17;;;;;;;15.20;74.80;101026.09;5091720;28;20028;-77
2022/10/25 03:02:31;;;;;;;79.80;15.63;;;;;;;15.23;74.76;101025.78;5091638;28;20035;-77
2022/10/25 03:04:56;;;;;;;64.55;15.38;;;;;;;15.05;74.91;100995.88;5091593;28;20024;-75
2022/10/25 03:07:22;;;;;;;100.95;16.23;;;;;;;15.21;74.81;101012.41;5091974;28;20032;-76
2022/10/25 03:09:47;;;;;;;81.32;14.75;;;;;;;15.25;75.05;101019.25;5091719;28;20024;-76
2022/10/25 03:12:12;;;;;;;26.80;14.20;;;;;;;15.21;75.15;101022.38;5091581;28;20112;-77
2022/10/25 03:14:38;;;;;;;42.72;14.45;;;;;;;15.20;75.25;101026.94;5101445;28;20046;-78
2022/10/25 03:17:05;;;;;;;26.02;13.30;;;;;;;15.10;75.55;101014.41;5101941;28;20123;-76
2022/10/25 03:19:30;;;;;;;92.95;17.55;;;;;;;14.99;75.91;100995.59;5102065;28;20115;-75
2022/10/25 03:21:56;;;;;;;67.07;16.33;;;;;;;14.93;75.90;100986.19;5092306;28;20048;-76
2022/10/25 03:24:21;;;;;;;81.53;15.43;;;;;;;15.12;75.92;101018.69;5091038;28;20032;-75
2022/10/25 03:26:47;;;;;;;38.05;14.90;;;;;;;15.07;76.20;101006.59;5091471;28;20017;-76
2022/10/25 03:29:12;;;;;;;62.63;14.85;;;;;;;15.19;76.31;101014.41;5091213;28;20118;-75
2022/10/25 03:31:38;;;;;;;42.67;15.30;;;;;;;15.12;76.45;101012.41;5091015;28;20160;-76
2022/10/25 03:34:04;;;;;;;66.53;16.20;;;;;;;15.13;76.78;101003.28;5091015;28;20031;-76
2022/10/25 03:36:29;;;;;;;52.15;15.95;;;;;;;15.16;76.72;101003.88;5091091;28;20410;-77
2022/10/25 03:38:55;;;;;;;49.33;15.30;;;;;;;15.13;77.26;100996.03;5092494;28;20106;-77
2022/10/25 03:41:20;;;;;;;45.25;15.68;;;;;;;15.10;77.12;100999.03;5071484;28;20100;-76
2022/10/25 03:43:46;;;;;;;109.82;19.00;;;;;;;15.07;76.98;100988.47;5090986;28;20016;-76
2022/10/25 03:46:11;;;;;;;74.55;16.42;;;;;;;14.92;77.35;100960.09;5088977;28;20032;-76
2022/10/25 03:48:36;;;;;;;135.10;17.52;;;;;;;15.15;77.35;100996.72;5090723;28;20023;-76
2022/10/25 03:51:02;;;;;;;51.78;14.80;;;;;;;15.15;77.22;100994.03;5090486;28;20032;-77
2022/10/25 03:53:27;;;;;;;57.85;15.77;;;;;;;15.13;76.97;100987.91;5090421;28;20031;-75
2022/10/25 03:55:53;;;;;;;101.68;18.75;;;;;;;15.15;76.83;100985.88;5090459;28;20055;-76
2022/10/25 03:58:18;;;;;;;128.77;19.33;;;;;;;15.17;76.58;100989.31;5089314;28;20043;-76
2022/10/25 04:00:44;;;;;;;35.25;15.57;;;;;;;15.14;76.51;100986.03;5090478;28;20020;-77
2022/10/25 04:03:09;;;;;;;73.13;16.52;;;;;;;14.94;76.32;100954.56;5090159;28;20074;-77
2022/10/25 04:05:35;;;;;;;93.13;18.58;;;;;;;15.15;76.22;100985.88;5090073;28;20032;-76
2022/10/25 04:08:00;;;;;;;112.78;18.70;;;;;;;15.11;76.18;100989.88;5089871;28;20505;-76
2022/10/25 04:10:26;;;;;;;98.55;17.83;;;;;;;14.93;75.89;100953.69;5090418;28;20107;-76
2022/10/25 04:12:52;;;;;;;114.45;20.00;;;;;;;14.89;76.40;100951.44;5089900;28;20111;-75
2022/10/25 04:15:17;;;;;;;164.48;21.80;;;;;;;15.10;76.34;100988.19;5090348;28;20401;-76
2022/10/25 04:17:43;;;;;;;164.38;22.92;;;;;;;14.94;76.37;100958.13;5089859;28;20024;-76
2022/10/25 04:20:09;;;;;;;290.23;30.13;;;;;;;15.05;76.30;100976.06;5090324;28;20538;-76
2022/10/25 04:22:34;;;;;;;184.18;24.60;;;;;;;15.04;76.42;100986.06;5089943;28;20020;-75
2022/10/25 04:24:59;;;;;;;623.70;61.53;;;;;;;15.05;76.33;100979.63;5090076;28;20028;-76
2022/10/25 04:27:25;;;;;;;465.17;44.40;;;;;;;15.03;76.33;100975.34;5097209;28;20545;-77
2022/10/25 04:29:50;;;;;;;481.77;47.08;;;;;;;15.01;76.43;100982.78;5106109;28;20391;-76
2022/10/25 04:32:16;;;;;;;185.43;26.90;;;;;;;15.02;76.63;100970.94;5106330;28;20047;-77
2022/10/25 04:34:41;;;;;;;599.67;60.72;;;;;;;14.85;76.81;100944.59;5091313;28;20028;-77
2022/10/25 04:37:06;;;;;;;193.00;30.20;;;;;;;15.01;76.64;100988.19;5089752;28;20481;-76
2022/10/25 04:39:32;;;;;;;235.05;31.77;;;;;;;15.03;76.57;100972.66;5089623;28;20039;-76
2022/10/25 04:41:57;;;;;;;341.42;42.65;;;;;;;15.03;76.34;100970.81;5087524;28;20024;-81
2022/10/25 04:44:23;;;;;;;317.17;39.35;;;;;;;14.93;76.81;100967.25;5088390;28;20062;-76
2022/10/25 04:46:48;;;;;;;329.27;40.03;;;;;;;14.94;77.02;100966.25;5088594;28;20024;-77
2022/10/25 04:49:14;;;;;;;446.73;52.55;;;;;;;15.01;77.18;100972.81;5088580;28;20428;-77
2022/10/25 04:51:40;;;;;;;473.85;54.00;;;;;;;14.99;77.07;100980.19;5088371;28;20369;-76
2022/10/25 04:54:05;;;;;;;423.60;48.92;;;;;;;15.01;77.10;100977.38;5088437;28;20032;-79
2022/10/25 04:56:31;;;;;;;338.80;39.35;;;;;;;14.87;77.53;100956.97;5088443;28;20051;-77
2022/10/25 04:58:59;;;;;;;221.45;35.53;;;;;;;14.99;77.42;100977.50;5087668;28;20032;-78
2022/10/25 05:01:25;;;;;;;223.77;35.72;;;;;;;15.02;77.81;100979.06;5088259;28;20042;-79
2022/10/25 05:03:50;;;;;;;191.98;34.50;;;;;;;15.05;78.16;100979.63;5088338;28;20032;-77
2022/10/25 05:06:25;;;;;;;192.07;34.65;;;;;;;15.05;78.23;100985.03;5087914;28;20027;-79
2022/10/25 05:08:52;;;;;;;250.88;37.00;;;;;;;15.01;78.51;100978.22;5088228;28;20030;-78
2022/10/25 05:11:20;;;;;;;395.73;44.92;;;;;;;15.09;78.62;100981.06;5088192;28;20111;-78
2022/10/25 05:13:46;;;;;;;182.55;33.10;;;;;;;15.03;79.09;100968.09;5088076;28;20028;-77
2022/10/25 05:16:20;;;;;;;247.38;37.03;;;;;;;15.12;78.83;100980.75;5086714;28;20406;-78
2022/10/25 05:18:46;;;;;;;199.65;35.13;;;;;;;15.27;79.03;100998.28;5087798;28;20039;-76
2022/10/25 05:21:13;;;;;;;211.45;31.92;;;;;;;15.10;79.47;100955.69;5088256;28;20099;-77
2022/10/25 05:23:38;;;;;;;232.07;33.70;;;;;;;15.40;79.49;100991.69;5086682;28;20047;-76
2022/10/25 05:26:19;;;;;;;190.25;31.38;;;;;;;15.49;79.63;100988.13;5068646;28;20499;-76
2022/10/25 05:28:46;;;;;;;279.13;31.60;;;;;;;15.55;79.67;100992.94;5088062;28;20032;-77
2022/10/25 05:31:17;;;;;;;105.22;26.85;;;;;;;15.66;79.74;100990.03;5087337;28;20507;-77
2022/10/25 05:33:46;;;;;;;121.18;29.90;;;;;;;15.70;79.75;100986.03;5087776;28;20032;-78
2022/10/25 05:36:13;;;;;;;112.28;26.48;;;;;;;15.84;79.75;100990.97;5088267;28;20107;-76
2022/10/25 05:38:39;;;;;;;92.18;28.52;;;;;;;15.90;79.96;100990.38;5088312;28;20016;-79
2022/10/25 05:41:05;;;;;;;133.75;29.08;;;;;;;16.05;79.87;101013.31;5101259;28;20095;-76
2022/10/25 05:43:31;;;;;;;225.02;32.95;;;;;;;16.16;79.80;101006.81;5098077;28;20488;-79
2022/10/25 05:46:18;;;;;;;140.30;29.95;;;;;;;16.12;79.67;100976.41;5097054;28;20161;-78
2022/10/25 05:48:44;;;;;;;145.23;35.30;;;;;;;16.39;79.17;100999.09;5093900;28;20028;-77
2022/10/25 05:51:17;;;;;;;128.70;26.27;;;;;;;16.53;79.17;101004.00;5095061;28;20047;-75
2022/10/25 05:53:48;;;;;;;105.55;26.27;;;;;;;16.64;78.87;101017.38;5087910;28;20101;-76
2022/10/25 05:56:15;;;;;;;116.55;24.95;;;;;;;16.74;78.70;101016.31;5087469;28;20040;-77
2022/10/25 05:58:41;;;;;;;91.97;25.13;;;;;;;16.68;78.15;100988.91;5087496;28;20039;-77
2022/10/25 06:01:12;;;;;;;174.80;32.60;;;;;;;16.97;78.30;101022.09;5087674;28;20036;-76
2022/10/25 06:03:37;;;;;;;123.60;28.17;;;;;;;17.09;78.52;101026.31;5087528;28;20490;-76
2022/10/25 06:06:05;;;;;;;134.23;31.65;;;;;;;17.07;78.58;101003.84;5090319;28;20036;-79
2022/10/25 06:08:31;;;;;;;206.70;32.20;;;;;;;17.32;78.89;101022.06;5111549;28;20080;-77
2022/10/25 06:11:06;;;;;;;325.67;48.42;;;;;;;17.37;79.04;101005.28;5113210;28;20079;-78
2022/10/25 06:13:32;;;;;;;198.65;37.30;;;;;;;17.63;79.13;101013.47;5111665;28;20032;-78
2022/10/25 06:15:57;;;;;;;130.30;31.88;;;;;;;17.76;79.01;101022.06;5111856;28;20379;-85
2022/10/25 06:18:23;;;;;;;124.90;33.70;;;;;;;17.74;78.61;100989.56;5113573;27;20067;-81
2022/10/25 06:20:49;;;;;;;193.20;45.42;;;;;;;18.07;78.56;101017.78;5112131;28;20549;-82
2022/10/25 06:23:14;;;;;;;348.33;58.70;;;;;;;18.16;78.05;101003.22;5112143;28;20461;-78
2022/10/25 06:25:40;;;;;;;164.20;39.88;;;;;;;18.31;77.62;101007.00;5111323;28;20034;-76
2022/10/25 06:28:08;;;;;;;148.90;34.05;;;;;;;18.28;77.22;100980.09;5111907;28;20020;-77
2022/10/25 06:30:34;;;;;;;120.03;31.20;;;;;;;18.60;76.86;101008.44;5111206;28;20148;-78
2022/10/25 06:32:59;;;;;;;504.30;72.78;;;;;;;18.56;76.58;100982.56;5111481;28;20029;-76
2022/10/25 06:35:25;;;;;;;249.85;41.75;;;;;;;18.83;76.01;101004.06;5111404;28;20034;-78
2022/10/25 06:37:50;;;;;;;95.97;32.22;;;;;;;18.82;75.37;100986.00;5111823;28;20028;-79
2022/10/25 06:40:16;;;;;;;283.95;47.33;;;;;;;19.05;74.88;100997.91;5111284;28;20624;-76
2022/10/25 06:42:41;;;;;;;159.82;38.22;;;;;;;19.15;73.73;101004.06;5103240;28;20020;-77
2022/10/25 06:45:07;;;;;;;205.10;38.33;;;;;;;19.20;73.01;101004.44;5091978;28;20039;-80
2022/10/25 06:47:33;;;;;;;199.68;39.15;;;;;;;19.28;72.60;101003.56;5091130;28;20024;-79
2022/10/25 06:49:58;;;;;;;429.10;109.93;;;;;;;19.25;72.38;100980.22;5091426;28;20035;-79
2022/10/25 06:52:23;;;;;;;162.90;46.95;;;;;;;19.19;71.69;100961.81;5121737;28;20047;-77
2022/10/25 06:54:49;;;;;;;81.63;36.58;;;;;;;19.41;71.80;100993.88;5124133;28;20023;-79
2022/10/25 06:57:14;;;;;;;62.97;29.35;;;;;;;19.51;71.94;100989.06;5124051;28;20518;-79
2022/10/25 06:59:40;;;;;;;147.05;31.30;;;;;;;19.51;71.84;100980.88;5111378;27;20020;-76
2022/10/25 07:02:05;;;;;;;83.63;27.92;;;;;;;19.64;71.49;100993.13;5111203;28;20023;-78
2022/10/25 07:04:31;;;;;;;65.07;26.33;;;;;;;19.66;71.04;100980.16;5112663;28;20027;-78
2022/10/25 07:06:58;;;;;;;44.95;23.83;;;;;;;19.76;70.58;100986.25;5112544;28;20055;-77
2022/10/25 07:09:27;;;;;;;38.95;16.55;;;;;;;19.54;68.19;100964.16;5110881;27;20038;-78
2022/10/25 07:11:52;;;;;;;65.97;18.98;;;;;;;19.59;67.26;100985.47;5110708;28;20496;-76
2022/10/25 07:14:18;;;;;;;433.23;60.28;;;;;;;19.49;67.55;100974.75;5110904;28;20035;-76
2022/10/25 07:16:43;;;;;;;102.47;26.10;;;;;;;19.55;67.89;100979.50;5110491;28;20020;-77
2022/10/25 07:19:09;;;;;;;90.88;21.10;;;;;;;19.59;67.94;100981.88;5110916;28;20023;-77
2022/10/25 07:21:35;;;;;;;59.63;19.60;;;;;;;19.57;68.26;100986.66;5109375;28;20028;-77
2022/10/25 07:24:01;;;;;;;141.43;23.88;;;;;;;19.68;68.38;100983.56;5110837;28;20079;-78
2022/10/25 07:26:31;;;;;;;133.45;24.13;;;;;;;19.82;67.96;100985.56;5110789;28;20597;-78
2022/10/25 07:28:59;;;;;;;71.63;21.38;;;;;;;19.80;68.33;100982.16;5110695;27;20028;-76
2022/10/25 07:31:35;;;;;;;132.65;27.35;;;;;;;19.84;68.76;100978.91;5110022;28;20077;-77
2022/10/25 07:34:04;;;;;;;136.60;26.98;;;;;;;19.97;68.48;100986.53;5110234;28;20032;-78
2022/10/25 07:36:29;;;;;;;86.07;22.63;;;;;;;20.06;67.43;100980.00;5109752;28;20024;-78
2022/10/25 07:38:55;;;;;;;169.77;28.90;;;;;;;20.14;67.13;100974.50;5110216;28;20032;-77
2022/10/25 07:41:22;;;;;;;53.53;19.25;;;;;;;20.26;66.21;100966.78;5110396;28;20085;-78
2022/10/25 07:43:48;;;;;;;58.40;17.23;;;;;;;20.29;64.91;100975.50;5092991;28;20032;-77
2022/10/25 07:46:13;;;;;;;1106.80;169.23;;;;;;;20.32;64.17;100977.88;5089799;28;20497;-77
2022/10/25 07:48:38;;;;;;;1063.93;132.02;;;;;;;20.34;63.49;100969.47;5089706;28;20122;-77
2022/10/25 07:51:06;;;;;;;55.13;17.67;;;;;;;20.40;63.66;100986.00;5090104;28;20028;-77
2022/10/25 07:53:32;;;;;;;113.63;25.70;;;;;;;20.45;63.81;100961.75;5089653;28;20032;-77
2022/10/25 07:55:57;;;;;;;81.25;19.65;;;;;;;20.63;64.59;100970.50;5090460;28;20027;-77
2022/10/25 07:58:23;;;;;;;83.43;23.75;;;;;;;20.61;66.89;100974.41;5089737;28;20491;-77
2022/10/25 08:00:48;;;;;;;185.65;32.50;;;;;;;20.70;67.04;100961.56;5089986;28;20020;-77
2022/10/25 08:03:16;;;;;;;286.83;32.92;;;;;;;20.74;66.73;100971.09;5091384;28;20431;-78
2022/10/25 08:05:46;;;;;;;52.92;29.50;;;;;;;20.78;66.79;100967.81;5103185;28;20054;-77
2022/10/25 08:08:13;;;;;;;341.45;35.70;;;;;;;20.83;66.48;100970.00;5105114;28;20040;-77
2022/10/25 08:10:39;;;;;;;292.90;30.75;;;;;;;21.00;66.35;100966.09;5099237;28;20027;-77
2022/10/25 08:13:05;;;;;;;137.73;20.42;;;;;;;21.15;65.58;100961.56;5089590;28;20036;-77
2022/10/25 08:15:30;;;;;;;144.50;53.83;;;;;;;21.15;64.63;100931.47;5089508;28;20031;-79
2022/10/25 08:18:00;;;;;;;381.40;52.45;;;;;;;21.36;64.24;100949.88;5088924;28;20024;-79
2022/10/25 08:20:26;;;;;;;169.48;27.63;;;;;;;21.30;64.41;100951.50;5088977;28;20020;-76
2022/10/25 08:22:56;;;;;;;72.40;20.98;;;;;;;21.29;64.29;100958.00;5088321;28;20050;-78
2022/10/25 08:25:21;;;;;;;100.95;20.60;;;;;;;21.33;64.71;100956.59;5088953;28;21079;-77
2022/10/25 08:27:47;;;;;;;41.05;20.77;;;;;;;21.33;64.17;100951.13;5089248;28;20030;-77
2022/10/25 08:30:12;;;;;;;46.08;19.27;;;;;;;21.32;64.30;100949.41;5088924;28;20035;-76
2022/10/25 08:32:38;;;;;;;179.20;27.42;;;;;;;21.32;64.15;100949.41;5087495;28;20020;-78
2022/10/25 08:35:04;;;;;;;103.15;23.00;;;;;;;21.18;63.95;100920.16;5088840;28;20034;-76
2022/10/25 08:37:29;;;;;;;49.83;14.73;;;;;;;21.54;63.08;100937.53;5088493;28;20039;-76
2022/10/25 08:39:55;;;;;;;231.40;26.17;;;;;;;21.66;62.56;100936.03;5088559;28;20024;-77
2022/10/25 08:42:30;;;;;;;388.48;47.85;;;;;;;21.71;62.88;100939.03;5088263;28;20481;-78
2022/10/25 08:45:25;;;;;;;72.28;13.05;;;;;;;21.61;61.82;100908.41;5089016;28;20048;-77
2022/10/25 08:47:52;;;;;;;69.03;17.70;;;;;;;21.82;61.42;100906.75;5090990;28;20028;-77
2022/10/25 08:50:39;;;;;;;71.20;29.17;;;;;;;22.10;60.75;100910.53;5089589;28;20751;-77
2022/10/25 08:53:14;;;;;;;49.95;11.18;;;;;;;22.13;59.81;100904.66;5088479;28;20122;-76
2022/10/25 08:55:42;;;;;;;18.15;10.52;;;;;;;21.95;59.92;100890.53;5090494;28;20070;-76
2022/10/25 08:58:14;;;;;;;34.20;11.45;;;;;;;21.98;59.36;100896.47;5088982;28;20424;-76
2022/10/25 09:00:41;;;;;;;;;;;;;;;22.12;59.19;100916.66;5090458;28;20085;-75
2022/10/25 09:03:15;;;;;;;97.70;12.82;;;;;;;22.06;59.83;100911.94;5090078;28;19911;-77
2022/10/25 09:05:46;;;;;;;41.10;13.40;;;;;;;22.32;59.07;100914.16;5070385;28;20040;-77
2022/10/25 09:08:14;;;;;;;37.15;11.98;;;;;;;22.55;58.42;100901.94;5089846;28;20032;-76
2022/10/25 09:10:51;;;;;;;73.20;12.52;;;;;;;22.66;57.36;100906.94;5089078;28;20498;-77
2022/10/25 09:13:35;;;;;;;77.93;15.40;;;;;;;22.51;56.16;100903.38;5089662;28;20035;-76
2022/10/25 09:16:09;;;;;;;56.97;13.27;;;;;;;22.56;56.30;100906.41;5093745;28;20024;-78
2022/10/25 09:18:37;;;;;;;118.65;15.13;;;;;;;22.72;55.79;100911.63;5102828;28;20063;-79
2022/10/25 09:21:08;;;;;;;99.93;21.23;;;;;;;22.80;54.82;100901.56;5100124;28;20115;-78
2022/10/25 09:23:33;;;;;;;51.88;13.98;;;;;;;22.91;54.82;100898.28;5091660;28;20028;-76
2022/10/25 09:26:24;;;;;;;36.95;12.40;;;;;;;23.14;54.34;100886.03;5088924;28;20093;-77
2022/10/25 09:28:56;;;;;;;36.35;14.00;;;;;;;23.16;53.08;100891.31;5089291;28;20492;-77
2022/10/25 09:31:23;;;;;;;27.73;10.73;;;;;;;23.33;52.49;100887.22;5089106;28;20364;-76
2022/10/25 09:33:56;;;;;;;51.28;11.50;;;;;;;23.58;52.38;100884.84;5089349;28;20487;-75
2022/10/25 09:36:24;;;;;;;278.98;23.40;;;;;;;23.65;51.33;100891.22;5088850;28;20016;-77
2022/10/25 09:38:57;;;;;;;53.85;10.55;;;;;;;23.72;51.68;100886.63;5088884;28;20039;-78
2022/10/25 09:41:38;;;;;;;120.32;16.73;;;;;;;23.85;51.14;100887.53;5088743;28;20024;-77
2022/10/25 09:44:33;;;;;;;93.93;14.65;;;;;;;23.99;50.52;100884.84;5088488;28;20668;-77
2022/10/25 09:47:14;;;;;;;37.33;10.45;;;;;;;24.05;49.81;100873.03;5088649;28;20036;-78
2022/10/25 09:49:50;;;;;;;21.10;11.02;;;;;;;24.01;49.20;100869.84;5088299;28;20028;-77
2022/10/25 09:52:51;;;;;;;38.00;13.32;;;;;;;24.11;49.31;100872.22;5088522;28;20044;-77
2022/10/25 09:55:19;;;;;;;335.20;42.05;;;;;;;24.20;48.39;100870.97;5025878;28;20036;-78
2022/10/25 09:57:45;;;;;;;224.90;27.77;;;;;;;24.07;48.09;100859.91;5025827;28;20885;-77
2022/10/25 10:00:14;;;;;;;36.78;17.38;;;;;;;23.71;48.44;100841.84;5025554;28;20037;-77
2022/10/25 10:02:40;;;;;;;77.97;14.77;;;;;;;23.93;47.86;100860.94;5025824;28;20073;-78
2022/10/25 10:05:13;;;;;;;271.20;26.92;;;;;;;23.82;47.85;100856.91;5025673;28;20576;-77
2022/10/25 10:07:40;;;;;;;117.25;16.05;;;;;;;23.60;48.45;100855.31;5025758;28;20140;-77
2022/10/25 10:10:10;;;;;;;72.05;14.73;;;;;;;23.66;48.40;100857.25;5025547;28;20456;-77
2022/10/25 10:12:44;;;;;;;355.02;31.08;;;;;;;23.59;48.28;100832.50;5025605;28;20029;-76
2022/10/25 10:15:25;;;;;;;22.60;9.23;;;;;;;23.71;48.17;100844.59;5025521;28;20108;-77
2022/10/25 10:18:21;;;;;;;136.30;16.25;;;;;;;23.57;49.21;100845.59;5025867;28;20630;-76
2022/10/25 10:21:06;;;;;;;52.80;11.38;;;;;;;23.47;49.82;100850.59;5026204;28;20025;-77
2022/10/25 10:23:55;;;;;;;63.28;13.80;;;;;;;23.26;50.16;100814.97;5025881;28;20049;-78
2022/10/25 10:26:30;;;;;;;27.92;9.23;;;;;;;23.33;51.00;100843.31;5025246;28;20037;-76
2022/10/25 10:29:10;;;;;;;920.17;128.32;;;;;;;23.33;51.00;100840.56;5053129;28;20040;-77
2022/10/25 10:31:40;;;;;;;592.92;54.55;;;;;;;23.31;51.67;100837.16;5102869;28;20111;-75
2022/10/25 10:34:41;;;;;;;25.13;8.30;;;;;;;23.35;50.65;100824.72;5103595;28;20043;-76
2022/10/25 10:37:12;;;;;;;735.05;92.80;;;;;;;23.38;50.53;100832.56;5088673;28;20031;-79
2022/10/25 10:39:53;;;;;;;107.03;18.63;;;;;;;23.48;50.13;100811.13;5088170;28;20448;-77
2022/10/25 10:42:41;;;;;;;89.03;13.35;;;;;;;23.51;50.16;100818.94;5087057;28;20327;-79
2022/10/25 10:45:06;;;;;;;371.85;30.08;;;;;;;23.51;49.24;100816.19;5086780;28;20449;-78
2022/10/25 10:47:48;;;;;;;43.95;10.77;;;;;;;23.53;49.09;100814.09;5088421;28;20057;-78
2022/10/25 10:50:20;;;;;;;56.33;10.65;;;;;;;23.49;49.51;100810.03;5088077;28;20024;-80
2022/10/25 10:52:52;;;;;;;673.60;59.17;;;;;;;23.35;49.88;100808.25;5088434;28;20028;-80
2022/10/25 10:55:24;;;;;;;474.98;45.67;;;;;;;23.39;49.84;100804.09;5084884;28;20047;-77
2022/10/25 10:57:51;;;;;;;;;;;;;;;23.35;49.98;100800.03;5091086;28;20036;-79
2022/10/25 11:00:26;;;;;;;79.10;12.45;;;;;;;23.20;50.10;100769.97;5090716;28;19904;-78
2022/10/25 11:02:52;;;;;;;152.00;14.13;;;;;;;23.38;50.75;100802.38;5090759;28;20020;-79
2022/10/25 11:05:29;;;;;;;73.80;14.05;;;;;;;23.47;50.67;100790.19;5090594;28;20024;-76
2022/10/25 11:08:00;;;;;;;88.38;12.52;;;;;;;23.56;50.46;100791.72;5090531;28;20111;-77
2022/10/25 11:10:33;;;;;;;32.83;9.63;;;;;;;23.62;49.83;100790.88;5089147;28;20059;-78
2022/10/25 11:13:10;;;;;;;590.08;50.63;;;;;;;23.70;49.94;100790.69;5090480;28;20027;-77
2022/10/25 11:16:06;;;;;;;132.95;16.63;;;;;;;23.80;49.03;100785.66;5087484;28;20495;-77
2022/10/25 11:18:37;;;;;;;88.28;13.45;;;;;;;23.91;48.97;100783.38;5046641;28;20072;-77